sensor_id;sensor_type;location;lat;lon;timestamp;temperature;humidity
40291;DHT22;26000;48.304;13.626;2022-08-07T00:01:31;18.90;99.90
40291;DHT22;26000;48.304;13.626;2022-08-07T00:03:56;18.90;99.90
40291;DHT22;26000;48.304;13.626;2022-08-07T00:06:22;18.90;99.90
40291;DHT22;26000;48.304;13.626;2022-08-07T00:08:48;18.80;99.90
40291;DHT22;26000;48.304;13.626;2022-08-07T00:11:13;18.80;99.90
40291;DHT22;26000;48.304;13.626;2022-08-07T00:13:39;18.80;99.90
40291;DHT22;26000;48.304;13.626;2022-08-07T00:16:07;18.80;99.90
40291;DHT22;26000;48.304;13.626;2022-08-07T00:18:32;18.80;99.90
40291;DHT22;26000;48.304;13.626;2022-08-07T00:21:01;18.80;99.90
40291;DHT22;26000;48.304;13.626;2022-08-07T00:23:29;18.80;99.90
40291;DHT22;26000;48.304;13.626;2022-08-07T00:25:55;18.80;99.90
40291;DHT22;26000;48.304;13.626;2022-08-07T00:28:21;18.80;99.90
40291;DHT22;26000;48.304;13.626;2022-08-07T00:30:47;18.80;99.90
40291;DHT22;26000;48.304;13.626;2022-08-07T00:33:13;18.80;99.90
40291;DHT22;26000;48.304;13.626;2022-08-07T00:35:38;18.80;99.90
40291;DHT22;26000;48.304;13.626;2022-08-07T00:38:04;18.80;99.90
40291;DHT22;26000;48.304;13.626;2022-08-07T00:40:30;18.80;99.90
40291;DHT22;26000;48.304;13.626;2022-08-07T00:42:58;18.70;99.90
40291;DHT22;26000;48.304;13.626;2022-08-07T00:45:23;18.60;99.90
40291;DHT22;26000;48.304;13.626;2022-08-07T00:47:49;18.60;99.90
40291;DHT22;26000;48.304;13.626;2022-08-07T00:50:16;18.50;99.90
40291;DHT22;26000;48.304;13.626;2022-08-07T00:52:42;18.50;99.90
40291;DHT22;26000;48.304;13.626;2022-08-07T00:55:08;18.50;99.90
40291;DHT22;26000;48.304;13.626;2022-08-07T00:57:34;18.50;99.90
40291;DHT22;26000;48.304;13.626;2022-08-07T01:00:00;18.50;99.90
40291;DHT22;26000;48.304;13.626;2022-08-07T01:02:26;18.50;99.90
40291;DHT22;26000;48.304;13.626;2022-08-07T01:04:52;18.50;99.90
40291;DHT22;26000;48.304;13.626;2022-08-07T01:07:21;18.50;99.90
40291;DHT22;26000;48.304;13.626;2022-08-07T01:09:47;18.50;99.90
40291;DHT22;26000;48.304;13.626;2022-08-07T01:12:14;18.50;99.90
40291;DHT22;26000;48.304;13.626;2022-08-07T01:14:40;18.50;99.90
40291;DHT22;26000;48.304;13.626;2022-08-07T01:17:06;18.50;99.90
40291;DHT22;26000;48.304;13.626;2022-08-07T01:19:32;18.50;99.90
40291;DHT22;26000;48.304;13.626;2022-08-07T01:21:59;18.40;99.90
40291;DHT22;26000;48.304;13.626;2022-08-07T01:24:26;18.40;99.90
40291;DHT22;26000;48.304;13.626;2022-08-07T01:26:53;18.50;99.90
40291;DHT22;26000;48.304;13.626;2022-08-07T01:29:21;18.50;99.90
40291;DHT22;26000;48.304;13.626;2022-08-07T01:31:47;18.40;99.90
40291;DHT22;26000;48.304;13.626;2022-08-07T01:34:13;18.40;99.90
40291;DHT22;26000;48.304;13.626;2022-08-07T01:36:38;18.50;99.90
40291;DHT22;26000;48.304;13.626;2022-08-07T01:39:04;18.40;99.90
40291;DHT22;26000;48.304;13.626;2022-08-07T01:41:30;18.30;99.90
40291;DHT22;26000;48.304;13.626;2022-08-07T01:43:56;18.30;99.90
40291;DHT22;26000;48.304;13.626;2022-08-07T01:46:22;18.30;99.90
40291;DHT22;26000;48.304;13.626;2022-08-07T01:48:48;18.20;99.90
40291;DHT22;26000;48.304;13.626;2022-08-07T01:51:18;18.20;99.90
40291;DHT22;26000;48.304;13.626;2022-08-07T01:53:49;18.10;99.90
40291;DHT22;26000;48.304;13.626;2022-08-07T01:56:22;18.10;99.90
40291;DHT22;26000;48.304;13.626;2022-08-07T01:59:02;18.10;99.90
40291;DHT22;26000;48.304;13.626;2022-08-07T02:01:35;18.10;99.90
40291;DHT22;26000;48.304;13.626;2022-08-07T02:04:06;18.10;99.90
40291;DHT22;26000;48.304;13.626;2022-08-07T02:06:33;18.00;99.90
40291;DHT22;26000;48.304;13.626;2022-08-07T02:09:03;18.00;99.90
40291;DHT22;26000;48.304;13.626;2022-08-07T02:11:31;18.00;99.90
40291;DHT22;26000;48.304;13.626;2022-08-07T02:13:58;18.00;99.90
40291;DHT22;26000;48.304;13.626;2022-08-07T02:16:25;17.90;99.90
40291;DHT22;26000;48.304;13.626;2022-08-07T02:18:51;17.90;99.90
40291;DHT22;26000;48.304;13.626;2022-08-07T02:21:19;17.90;99.90
40291;DHT22;26000;48.304;13.626;2022-08-07T02:23:45;17.80;99.90
40291;DHT22;26000;48.304;13.626;2022-08-07T02:26:13;17.80;99.90
40291;DHT22;26000;48.304;13.626;2022-08-07T02:28:40;17.80;99.90
40291;DHT22;26000;48.304;13.626;2022-08-07T02:31:06;17.90;99.90
40291;DHT22;26000;48.304;13.626;2022-08-07T02:33:33;17.80;99.90
40291;DHT22;26000;48.304;13.626;2022-08-07T02:36:02;17.70;99.90
40291;DHT22;26000;48.304;13.626;2022-08-07T02:38:32;17.80;99.90
40291;DHT22;26000;48.304;13.626;2022-08-07T02:41:00;17.80;99.90
40291;DHT22;26000;48.304;13.626;2022-08-07T02:43:27;17.70;99.90
40291;DHT22;26000;48.304;13.626;2022-08-07T02:45:56;17.60;99.90
40291;DHT22;26000;48.304;13.626;2022-08-07T02:48:22;17.60;99.90
40291;DHT22;26000;48.304;13.626;2022-08-07T02:50:52;17.70;99.90
40291;DHT22;26000;48.304;13.626;2022-08-07T02:53:24;17.70;99.90
40291;DHT22;26000;48.304;13.626;2022-08-07T02:55:51;17.70;99.90
40291;DHT22;26000;48.304;13.626;2022-08-07T02:58:20;17.60;99.90
40291;DHT22;26000;48.304;13.626;2022-08-07T03:00:49;17.60;99.90
40291;DHT22;26000;48.304;13.626;2022-08-07T03:03:16;17.60;99.90
40291;DHT22;26000;48.304;13.626;2022-08-07T03:05:44;17.50;99.90
40291;DHT22;26000;48.304;13.626;2022-08-07T03:08:10;17.50;99.90
40291;DHT22;26000;48.304;13.626;2022-08-07T03:10:37;17.60;99.90
40291;DHT22;26000;48.304;13.626;2022-08-07T03:13:05;17.70;99.90
40291;DHT22;26000;48.304;13.626;2022-08-07T03:15:31;17.50;99.90
40291;DHT22;26000;48.304;13.626;2022-08-07T03:17:57;17.50;99.90
40291;DHT22;26000;48.304;13.626;2022-08-07T03:20:23;17.40;99.90
40291;DHT22;26000;48.304;13.626;2022-08-07T03:22:51;17.50;99.90
40291;DHT22;26000;48.304;13.626;2022-08-07T03:25:17;17.50;99.90
40291;DHT22;26000;48.304;13.626;2022-08-07T03:27:43;17.50;99.90
40291;DHT22;26000;48.304;13.626;2022-08-07T03:30:11;17.50;99.90
40291;DHT22;26000;48.304;13.626;2022-08-07T03:32:40;17.50;99.90
40291;DHT22;26000;48.304;13.626;2022-08-07T03:35:10;17.60;99.90
40291;DHT22;26000;48.304;13.626;2022-08-07T03:37:38;17.60;99.90
40291;DHT22;26000;48.304;13.626;2022-08-07T03:40:05;17.40;99.90
40291;DHT22;26000;48.304;13.626;2022-08-07T03:42:33;17.40;99.90
40291;DHT22;26000;48.304;13.626;2022-08-07T03:44:59;17.50;99.90
40291;DHT22;26000;48.304;13.626;2022-08-07T03:47:28;17.60;99.90
40291;DHT22;26000;48.304;13.626;2022-08-07T03:49:56;17.50;99.90
40291;DHT22;26000;48.304;13.626;2022-08-07T03:52:31;17.60;99.90
40291;DHT22;26000;48.304;13.626;2022-08-07T03:54:58;17.50;99.90
40291;DHT22;26000;48.304;13.626;2022-08-07T03:57:25;17.50;99.90
40291;DHT22;26000;48.304;13.626;2022-08-07T03:59:52;17.50;99.90
40291;DHT22;26000;48.304;13.626;2022-08-07T04:02:18;17.50;99.90
40291;DHT22;26000;48.304;13.626;2022-08-07T04:04:44;17.40;99.90
40291;DHT22;26000;48.304;13.626;2022-08-07T04:07:10;17.30;99.90
40291;DHT22;26000;48.304;13.626;2022-08-07T04:09:36;17.30;99.90
40291;DHT22;26000;48.304;13.626;2022-08-07T04:12:02;17.30;99.90
40291;DHT22;26000;48.304;13.626;2022-08-07T04:14:30;17.40;99.90
40291;DHT22;26000;48.304;13.626;2022-08-07T04:16:56;17.50;99.90
40291;DHT22;26000;48.304;13.626;2022-08-07T04:19:22;17.50;99.90
40291;DHT22;26000;48.304;13.626;2022-08-07T04:21:49;17.70;99.90
40291;DHT22;26000;48.304;13.626;2022-08-07T04:24:16;17.80;99.90
40291;DHT22;26000;48.304;13.626;2022-08-07T04:26:42;17.80;99.90
40291;DHT22;26000;48.304;13.626;2022-08-07T04:29:07;17.80;99.90
40291;DHT22;26000;48.304;13.626;2022-08-07T04:31:40;17.60;99.90
40291;DHT22;26000;48.304;13.626;2022-08-07T04:34:06;17.60;99.90
40291;DHT22;26000;48.304;13.626;2022-08-07T04:36:33;17.60;99.90
40291;DHT22;26000;48.304;13.626;2022-08-07T04:38:59;17.50;99.90
40291;DHT22;26000;48.304;13.626;2022-08-07T04:41:25;17.60;99.90
40291;DHT22;26000;48.304;13.626;2022-08-07T04:43:51;17.60;99.90
40291;DHT22;26000;48.304;13.626;2022-08-07T04:49:13;17.70;99.90
40291;DHT22;26000;48.304;13.626;2022-08-07T04:52:02;17.70;99.90
40291;DHT22;26000;48.304;13.626;2022-08-07T04:57:24;17.60;99.90
40291;DHT22;26000;48.304;13.626;2022-08-07T05:05:34;17.80;99.90
40291;DHT22;26000;48.304;13.626;2022-08-07T05:08:23;17.90;99.90
40291;DHT22;26000;48.304;13.626;2022-08-07T05:10:57;18.00;99.90
40291;DHT22;26000;48.304;13.626;2022-08-07T05:13:35;18.00;99.90
40291;DHT22;26000;48.304;13.626;2022-08-07T05:16:06;18.10;99.90
40291;DHT22;26000;48.304;13.626;2022-08-07T05:18:44;18.00;99.90
40291;DHT22;26000;48.304;13.626;2022-08-07T05:21:12;18.00;99.90
40291;DHT22;26000;48.304;13.626;2022-08-07T05:23:54;18.00;99.90
40291;DHT22;26000;48.304;13.626;2022-08-07T05:26:23;18.00;99.90
40291;DHT22;26000;48.304;13.626;2022-08-07T05:28:55;18.10;99.90
40291;DHT22;26000;48.304;13.626;2022-08-07T05:31:27;18.20;99.90
40291;DHT22;26000;48.304;13.626;2022-08-07T05:33:54;18.10;99.90
40291;DHT22;26000;48.304;13.626;2022-08-07T05:36:21;18.10;99.90
40291;DHT22;26000;48.304;13.626;2022-08-07T05:38:49;18.10;99.90
40291;DHT22;26000;48.304;13.626;2022-08-07T05:41:15;18.20;99.90
40291;DHT22;26000;48.304;13.626;2022-08-07T05:43:46;18.20;99.90
40291;DHT22;26000;48.304;13.626;2022-08-07T05:46:14;18.20;99.90
40291;DHT22;26000;48.304;13.626;2022-08-07T05:48:41;18.30;99.90
40291;DHT22;26000;48.304;13.626;2022-08-07T05:51:08;18.30;99.90
40291;DHT22;26000;48.304;13.626;2022-08-07T05:53:34;18.30;99.90
40291;DHT22;26000;48.304;13.626;2022-08-07T05:56:01;18.30;99.90
40291;DHT22;26000;48.304;13.626;2022-08-07T05:58:28;18.40;99.90
40291;DHT22;26000;48.304;13.626;2022-08-07T06:00:55;18.50;99.90
40291;DHT22;26000;48.304;13.626;2022-08-07T06:03:22;18.50;99.90
40291;DHT22;26000;48.304;13.626;2022-08-07T06:05:49;18.60;99.90
40291;DHT22;26000;48.304;13.626;2022-08-07T06:08:16;18.60;99.90
40291;DHT22;26000;48.304;13.626;2022-08-07T06:10:42;18.50;99.90
40291;DHT22;26000;48.304;13.626;2022-08-07T06:13:08;18.60;99.90
40291;DHT22;26000;48.304;13.626;2022-08-07T06:15:35;18.60;99.90
40291;DHT22;26000;48.304;13.626;2022-08-07T06:18:02;18.60;99.90
40291;DHT22;26000;48.304;13.626;2022-08-07T06:20:29;18.70;99.90
40291;DHT22;26000;48.304;13.626;2022-08-07T06:22:56;18.70;99.90
40291;DHT22;26000;48.304;13.626;2022-08-07T06:25:22;18.80;99.90
40291;DHT22;26000;48.304;13.626;2022-08-07T06:27:48;18.90;99.90
40291;DHT22;26000;48.304;13.626;2022-08-07T06:30:14;18.80;99.90
40291;DHT22;26000;48.304;13.626;2022-08-07T06:32:39;18.90;99.90
40291;DHT22;26000;48.304;13.626;2022-08-07T06:35:05;18.90;99.90
40291;DHT22;26000;48.304;13.626;2022-08-07T06:37:32;19.00;99.90
40291;DHT22;26000;48.304;13.626;2022-08-07T06:39:57;19.00;99.90
40291;DHT22;26000;48.304;13.626;2022-08-07T06:42:29;19.10;99.90
40291;DHT22;26000;48.304;13.626;2022-08-07T06:45:02;19.00;99.90
40291;DHT22;26000;48.304;13.626;2022-08-07T06:47:29;19.10;99.90
40291;DHT22;26000;48.304;13.626;2022-08-07T06:49:55;19.30;99.90
40291;DHT22;26000;48.304;13.626;2022-08-07T06:52:21;19.30;99.90
40291;DHT22;26000;48.304;13.626;2022-08-07T06:54:49;19.30;99.70
40291;DHT22;26000;48.304;13.626;2022-08-07T06:57:16;19.30;99.90
40291;DHT22;26000;48.304;13.626;2022-08-07T06:59:42;19.40;99.90
40291;DHT22;26000;48.304;13.626;2022-08-07T07:02:19;19.40;99.90
40291;DHT22;26000;48.304;13.626;2022-08-07T07:04:46;19.50;99.90
40291;DHT22;26000;48.304;13.626;2022-08-07T07:07:12;19.50;99.80
40291;DHT22;26000;48.304;13.626;2022-08-07T07:09:44;19.60;99.50
40291;DHT22;26000;48.304;13.626;2022-08-07T07:15:24;19.70;99.30
40291;DHT22;26000;48.304;13.626;2022-08-07T07:20:51;19.50;99.20
40291;DHT22;26000;48.304;13.626;2022-08-07T07:23:18;19.60;99.00
40291;DHT22;26000;48.304;13.626;2022-08-07T07:25:47;19.60;98.40
40291;DHT22;26000;48.304;13.626;2022-08-07T07:28:32;19.50;98.20
40291;DHT22;26000;48.304;13.626;2022-08-07T07:31:04;19.40;98.50
40291;DHT22;26000;48.304;13.626;2022-08-07T07:33:33;19.50;98.40
40291;DHT22;26000;48.304;13.626;2022-08-07T07:35:59;19.50;98.30
40291;DHT22;26000;48.304;13.626;2022-08-07T07:38:26;19.60;98.10
40291;DHT22;26000;48.304;13.626;2022-08-07T07:40:58;19.70;98.00
40291;DHT22;26000;48.304;13.626;2022-08-07T07:43:26;19.60;98.00
40291;DHT22;26000;48.304;13.626;2022-08-07T07:45:54;19.70;98.00
40291;DHT22;26000;48.304;13.626;2022-08-07T07:48:21;19.90;97.40
40291;DHT22;26000;48.304;13.626;2022-08-07T07:50:50;20.00;97.80
40291;DHT22;26000;48.304;13.626;2022-08-07T07:53:19;20.00;97.00
40291;DHT22;26000;48.304;13.626;2022-08-07T07:55:45;20.10;97.20
40291;DHT22;26000;48.304;13.626;2022-08-07T07:58:12;20.10;96.10
40291;DHT22;26000;48.304;13.626;2022-08-07T08:00:40;20.20;96.60
40291;DHT22;26000;48.304;13.626;2022-08-07T08:03:10;20.20;96.50
40291;DHT22;26000;48.304;13.626;2022-08-07T08:05:38;20.20;96.30
40291;DHT22;26000;48.304;13.626;2022-08-07T08:08:05;20.30;96.60
40291;DHT22;26000;48.304;13.626;2022-08-07T08:10:33;20.40;96.00
40291;DHT22;26000;48.304;13.626;2022-08-07T08:12:59;20.50;95.90
40291;DHT22;26000;48.304;13.626;2022-08-07T08:15:28;20.50;95.60
40291;DHT22;26000;48.304;13.626;2022-08-07T08:17:56;20.40;95.60
40291;DHT22;26000;48.304;13.626;2022-08-07T08:20:24;20.50;95.90
40291;DHT22;26000;48.304;13.626;2022-08-07T08:22:52;20.50;95.90
40291;DHT22;26000;48.304;13.626;2022-08-07T08:25:39;20.70;95.60
40291;DHT22;26000;48.304;13.626;2022-08-07T08:28:25;20.80;96.00
40291;DHT22;26000;48.304;13.626;2022-08-07T08:30:56;20.90;96.10
40291;DHT22;26000;48.304;13.626;2022-08-07T08:33:23;20.90;96.10
40291;DHT22;26000;48.304;13.626;2022-08-07T08:35:53;20.90;95.80
40291;DHT22;26000;48.304;13.626;2022-08-07T08:38:24;20.90;96.00
40291;DHT22;26000;48.304;13.626;2022-08-07T08:41:07;20.80;95.90
40291;DHT22;26000;48.304;13.626;2022-08-07T08:44:01;20.80;95.90
40291;DHT22;26000;48.304;13.626;2022-08-07T08:46:49;20.70;95.80
40291;DHT22;26000;48.304;13.626;2022-08-07T08:58:11;20.70;96.70
40291;DHT22;26000;48.304;13.626;2022-08-07T09:00:43;20.70;96.20
40291;DHT22;26000;48.304;13.626;2022-08-07T09:03:23;20.70;96.10
40291;DHT22;26000;48.304;13.626;2022-08-07T09:06:18;20.70;96.20
40291;DHT22;26000;48.304;13.626;2022-08-07T09:08:55;20.70;96.50
40291;DHT22;26000;48.304;13.626;2022-08-07T09:11:48;20.80;96.70
40291;DHT22;26000;48.304;13.626;2022-08-07T09:14:28;20.90;96.80
40291;DHT22;26000;48.304;13.626;2022-08-07T09:20:03;20.70;97.00
40291;DHT22;26000;48.304;13.626;2022-08-07T09:30:23;21.10;96.70
40291;DHT22;26000;48.304;13.626;2022-08-07T09:33:03;21.00;96.50
40291;DHT22;26000;48.304;13.626;2022-08-07T09:36:02;21.10;96.50
40291;DHT22;26000;48.304;13.626;2022-08-07T09:41:50;21.30;96.00
40291;DHT22;26000;48.304;13.626;2022-08-07T09:47:08;21.30;96.10
40291;DHT22;26000;48.304;13.626;2022-08-07T09:50:03;21.20;95.40
40291;DHT22;26000;48.304;13.626;2022-08-07T10:06:30;21.40;95.40
40291;DHT22;26000;48.304;13.626;2022-08-07T10:09:03;21.60;94.80
40291;DHT22;26000;48.304;13.626;2022-08-07T10:18:10;21.70;94.80
40291;DHT22;26000;48.304;13.626;2022-08-07T10:40:18;22.10;94.80
40291;DHT22;26000;48.304;13.626;2022-08-07T10:45:48;22.30;94.80
40291;DHT22;26000;48.304;13.626;2022-08-07T10:51:20;22.20;94.40
40291;DHT22;26000;48.304;13.626;2022-08-07T10:53:52;22.20;94.80
40291;DHT22;26000;48.304;13.626;2022-08-07T11:04:39;22.70;94.20
40291;DHT22;26000;48.304;13.626;2022-08-07T11:10:18;23.30;93.60
40291;DHT22;26000;48.304;13.626;2022-08-07T11:12:55;23.60;93.20
40291;DHT22;26000;48.304;13.626;2022-08-07T11:15:26;23.90;93.80
40291;DHT22;26000;48.304;13.626;2022-08-07T11:20:22;23.80;93.60
40291;DHT22;26000;48.304;13.626;2022-08-07T11:25:34;23.60;92.90
40291;DHT22;26000;48.304;13.626;2022-08-07T11:28:14;23.50;93.30
40291;DHT22;26000;48.304;13.626;2022-08-07T11:36:13;23.40;93.10
40291;DHT22;26000;48.304;13.626;2022-08-07T11:41:50;23.50;93.10
40291;DHT22;26000;48.304;13.626;2022-08-07T11:44:36;23.20;92.90
40291;DHT22;26000;48.304;13.626;2022-08-07T11:53:30;23.40;93.40
40291;DHT22;26000;48.304;13.626;2022-08-07T11:58:59;23.30;93.00
40291;DHT22;26000;48.304;13.626;2022-08-07T12:01:37;23.30;93.20
40291;DHT22;26000;48.304;13.626;2022-08-07T12:07:04;23.30;93.10
40291;DHT22;26000;48.304;13.626;2022-08-07T12:09:35;23.30;92.80
40291;DHT22;26000;48.304;13.626;2022-08-07T12:12:07;23.30;92.50
40291;DHT22;26000;48.304;13.626;2022-08-07T12:17:10;23.20;92.80
40291;DHT22;26000;48.304;13.626;2022-08-07T12:19:46;23.00;92.90
40291;DHT22;26000;48.304;13.626;2022-08-07T12:22:34;22.90;93.20
40291;DHT22;26000;48.304;13.626;2022-08-07T12:25:08;22.90;93.40
40291;DHT22;26000;48.304;13.626;2022-08-07T12:27:59;22.80;93.20
40291;DHT22;26000;48.304;13.626;2022-08-07T12:30:29;22.80;93.40
40291;DHT22;26000;48.304;13.626;2022-08-07T12:33:00;22.70;93.10
40291;DHT22;26000;48.304;13.626;2022-08-07T12:35:31;22.80;93.80
40291;DHT22;26000;48.304;13.626;2022-08-07T12:37:58;22.70;93.70
40291;DHT22;26000;48.304;13.626;2022-08-07T12:40:26;22.80;93.70
40291;DHT22;26000;48.304;13.626;2022-08-07T12:42:55;23.00;93.80
40291;DHT22;26000;48.304;13.626;2022-08-07T12:45:25;23.10;93.20
40291;DHT22;26000;48.304;13.626;2022-08-07T12:48:14;23.20;92.60
40291;DHT22;26000;48.304;13.626;2022-08-07T12:50:53;23.40;93.60
40291;DHT22;26000;48.304;13.626;2022-08-07T12:58:25;23.50;92.60
40291;DHT22;26000;48.304;13.626;2022-08-07T13:14:42;23.30;92.50
40291;DHT22;26000;48.304;13.626;2022-08-07T13:20:02;23.40;92.50
40291;DHT22;26000;48.304;13.626;2022-08-07T13:22:40;23.20;92.60
40291;DHT22;26000;48.304;13.626;2022-08-07T13:25:53;23.30;92.80
40291;DHT22;26000;48.304;13.626;2022-08-07T13:28:24;23.30;92.30
40291;DHT22;26000;48.304;13.626;2022-08-07T13:31:28;23.30;92.60
40291;DHT22;26000;48.304;13.626;2022-08-07T13:33:58;23.30;93.10
40291;DHT22;26000;48.304;13.626;2022-08-07T13:36:36;23.30;93.30
40291;DHT22;26000;48.304;13.626;2022-08-07T13:41:49;23.20;92.30
40291;DHT22;26000;48.304;13.626;2022-08-07T13:44:22;23.20;92.70
40291;DHT22;26000;48.304;13.626;2022-08-07T13:46:51;23.20;93.10
40291;DHT22;26000;48.304;13.626;2022-08-07T13:49:19;23.30;93.80
40291;DHT22;26000;48.304;13.626;2022-08-07T13:51:47;23.40;92.70
40291;DHT22;26000;48.304;13.626;2022-08-07T13:54:15;23.30;92.60
40291;DHT22;26000;48.304;13.626;2022-08-07T13:56:43;23.40;92.80
40291;DHT22;26000;48.304;13.626;2022-08-07T13:59:18;23.40;93.30
40291;DHT22;26000;48.304;13.626;2022-08-07T14:01:58;23.40;93.10
40291;DHT22;26000;48.304;13.626;2022-08-07T14:04:42;23.40;92.90
40291;DHT22;26000;48.304;13.626;2022-08-07T14:07:10;23.30;93.00
40291;DHT22;26000;48.304;13.626;2022-08-07T14:09:38;23.30;93.30
40291;DHT22;26000;48.304;13.626;2022-08-07T14:12:08;23.20;93.20
40291;DHT22;26000;48.304;13.626;2022-08-07T14:14:41;23.30;92.80
40291;DHT22;26000;48.304;13.626;2022-08-07T14:17:09;23.40;92.60
40291;DHT22;26000;48.304;13.626;2022-08-07T14:19:43;23.30;93.00
40291;DHT22;26000;48.304;13.626;2022-08-07T14:22:15;23.50;92.70
40291;DHT22;26000;48.304;13.626;2022-08-07T14:24:48;23.60;92.30
40291;DHT22;26000;48.304;13.626;2022-08-07T14:27:40;23.50;92.40
40291;DHT22;26000;48.304;13.626;2022-08-07T14:30:06;23.40;92.80
40291;DHT22;26000;48.304;13.626;2022-08-07T14:32:55;23.40;93.20
40291;DHT22;26000;48.304;13.626;2022-08-07T14:35:32;23.50;92.90
40291;DHT22;26000;48.304;13.626;2022-08-07T14:38:00;23.60;92.70
40291;DHT22;26000;48.304;13.626;2022-08-07T14:40:27;23.60;92.40
40291;DHT22;26000;48.304;13.626;2022-08-07T14:42:59;23.60;92.70
40291;DHT22;26000;48.304;13.626;2022-08-07T14:45:49;23.70;92.60
40291;DHT22;26000;48.304;13.626;2022-08-07T14:48:15;23.70;92.90
40291;DHT22;26000;48.304;13.626;2022-08-07T14:50:52;23.80;93.00
40291;DHT22;26000;48.304;13.626;2022-08-07T14:53:21;23.70;92.60
40291;DHT22;26000;48.304;13.626;2022-08-07T14:55:47;23.60;92.20
40291;DHT22;26000;48.304;13.626;2022-08-07T14:58:15;23.60;92.70
40291;DHT22;26000;48.304;13.626;2022-08-07T15:00:43;23.70;92.80
40291;DHT22;26000;48.304;13.626;2022-08-07T15:03:12;23.70;94.20
40291;DHT22;26000;48.304;13.626;2022-08-07T15:05:39;23.80;92.60
40291;DHT22;26000;48.304;13.626;2022-08-07T15:08:09;23.80;92.80
40291;DHT22;26000;48.304;13.626;2022-08-07T15:10:39;23.70;92.30
40291;DHT22;26000;48.304;13.626;2022-08-07T15:13:16;23.70;93.00
40291;DHT22;26000;48.304;13.626;2022-08-07T15:15:45;23.70;93.10
40291;DHT22;26000;48.304;13.626;2022-08-07T15:18:17;23.70;93.00
40291;DHT22;26000;48.304;13.626;2022-08-07T15:20:45;23.70;92.80
40291;DHT22;26000;48.304;13.626;2022-08-07T15:23:17;23.70;93.60
40291;DHT22;26000;48.304;13.626;2022-08-07T15:25:49;23.70;93.60
40291;DHT22;26000;48.304;13.626;2022-08-07T15:28:19;23.70;92.90
40291;DHT22;26000;48.304;13.626;2022-08-07T15:30:47;23.70;93.00
40291;DHT22;26000;48.304;13.626;2022-08-07T15:33:17;23.60;92.50
40291;DHT22;26000;48.304;13.626;2022-08-07T15:35:51;23.60;92.80
40291;DHT22;26000;48.304;13.626;2022-08-07T15:38:29;23.50;92.70
40291;DHT22;26000;48.304;13.626;2022-08-07T15:40:55;23.50;93.00
40291;DHT22;26000;48.304;13.626;2022-08-07T15:43:26;23.30;93.00
40291;DHT22;26000;48.304;13.626;2022-08-07T15:45:55;23.40;92.70
40291;DHT22;26000;48.304;13.626;2022-08-07T15:48:29;23.20;92.60
40291;DHT22;26000;48.304;13.626;2022-08-07T15:51:00;23.20;92.50
40291;DHT22;26000;48.304;13.626;2022-08-07T15:53:36;23.10;93.10
40291;DHT22;26000;48.304;13.626;2022-08-07T15:56:05;23.20;93.00
40291;DHT22;26000;48.304;13.626;2022-08-07T15:58:54;23.10;92.80
40291;DHT22;26000;48.304;13.626;2022-08-07T16:01:38;23.10;92.80
40291;DHT22;26000;48.304;13.626;2022-08-07T16:04:07;23.10;92.80
40291;DHT22;26000;48.304;13.626;2022-08-07T16:06:49;23.10;93.00
40291;DHT22;26000;48.304;13.626;2022-08-07T16:17:18;22.90;92.30
40291;DHT22;26000;48.304;13.626;2022-08-07T16:25:16;22.90;92.40
40291;DHT22;26000;48.304;13.626;2022-08-07T16:27:51;22.90;92.20
40291;DHT22;26000;48.304;13.626;2022-08-07T16:30:23;22.60;92.50
40291;DHT22;26000;48.304;13.626;2022-08-07T16:32:56;22.50;93.00
40291;DHT22;26000;48.304;13.626;2022-08-07T16:38:41;22.40;92.90
40291;DHT22;26000;48.304;13.626;2022-08-07T16:49:26;22.20;93.70
40291;DHT22;26000;48.304;13.626;2022-08-07T17:00:10;22.00;93.90
40291;DHT22;26000;48.304;13.626;2022-08-07T17:08:06;22.10;94.30
40291;DHT22;26000;48.304;13.626;2022-08-07T17:10:48;22.10;94.00
40291;DHT22;26000;48.304;13.626;2022-08-07T17:21:43;22.00;94.70
40291;DHT22;26000;48.304;13.626;2022-08-07T17:27:18;21.90;94.80
40291;DHT22;26000;48.304;13.626;2022-08-07T17:30:06;21.90;94.70
40291;DHT22;26000;48.304;13.626;2022-08-07T17:38:16;21.90;94.80
40291;DHT22;26000;48.304;13.626;2022-08-07T17:41:10;21.80;94.80
40291;DHT22;26000;48.304;13.626;2022-08-07T17:43:45;21.80;95.00
40291;DHT22;26000;48.304;13.626;2022-08-07T17:46:21;21.80;95.10
40291;DHT22;26000;48.304;13.626;2022-08-07T17:49:23;21.70;95.10
40291;DHT22;26000;48.304;13.626;2022-08-07T17:52:12;21.60;94.90
40291;DHT22;26000;48.304;13.626;2022-08-07T17:54:49;21.60;95.30
40291;DHT22;26000;48.304;13.626;2022-08-07T17:59:50;21.50;95.60
40291;DHT22;26000;48.304;13.626;2022-08-07T18:02:26;21.50;95.70
40291;DHT22;26000;48.304;13.626;2022-08-07T18:10:53;21.30;95.80
40291;DHT22;26000;48.304;13.626;2022-08-07T18:13:48;21.30;95.50
40291;DHT22;26000;48.304;13.626;2022-08-07T18:18:55;21.30;95.30
40291;DHT22;26000;48.304;13.626;2022-08-07T18:21:26;21.20;95.40
40291;DHT22;26000;48.304;13.626;2022-08-07T18:35:32;21.10;95.90
40291;DHT22;26000;48.304;13.626;2022-08-07T18:43:13;21.00;95.90
40291;DHT22;26000;48.304;13.626;2022-08-07T18:45:46;21.00;95.70
40291;DHT22;26000;48.304;13.626;2022-08-07T18:48:27;21.10;95.70
40291;DHT22;26000;48.304;13.626;2022-08-07T18:50:57;20.90;96.00
40291;DHT22;26000;48.304;13.626;2022-08-07T18:59:17;20.70;96.30
40291;DHT22;26000;48.304;13.626;2022-08-07T19:01:54;20.70;96.70
40291;DHT22;26000;48.304;13.626;2022-08-07T19:04:31;20.70;96.50
40291;DHT22;26000;48.304;13.626;2022-08-07T19:07:13;20.60;96.50
40291;DHT22;26000;48.304;13.626;2022-08-07T19:09:48;20.70;96.70
40291;DHT22;26000;48.304;13.626;2022-08-07T19:12:24;20.60;96.80
40291;DHT22;26000;48.304;13.626;2022-08-07T19:14:58;20.50;97.00
40291;DHT22;26000;48.304;13.626;2022-08-07T19:17:54;20.50;97.10
40291;DHT22;26000;48.304;13.626;2022-08-07T19:20:28;20.40;97.30
40291;DHT22;26000;48.304;13.626;2022-08-07T19:25:31;20.40;97.30
40291;DHT22;26000;48.304;13.626;2022-08-07T19:28:00;20.40;97.50
40291;DHT22;26000;48.304;13.626;2022-08-07T19:30:32;20.20;97.30
40291;DHT22;26000;48.304;13.626;2022-08-07T19:33:01;20.20;97.40
40291;DHT22;26000;48.304;13.626;2022-08-07T19:35:28;20.20;97.60
40291;DHT22;26000;48.304;13.626;2022-08-07T19:37:57;20.20;98.20
40291;DHT22;26000;48.304;13.626;2022-08-07T19:40:25;20.10;98.20
40291;DHT22;26000;48.304;13.626;2022-08-07T19:42:52;20.10;98.30
40291;DHT22;26000;48.304;13.626;2022-08-07T19:45:22;20.10;98.70